Time;durP1;ratioP1;P1;durP2;ratioP2;P2;SDS_P1;SDS_P2;PMS_P1;PMS_P2;Temp;Humidity;BMP_temperature;BMP_pressure;BME280_temperature;BME280_humidity;BME280_pressure;Samples;Min_cycle;Max_cycle;Signal;HPM_P1;HPM_P2
2022/05/30 00:01:34;;;;;;;17.10;8.20;;;;;;;;;;5032981;28;20124;-62
2022/05/30 00:04:00;;;;;;;22.58;8.23;;;;;;;;;;5028951;28;20064;-62
2022/05/30 00:06:29;;;;;;;21.67;8.05;;;;;;;;;;5028702;28;20095;-62
2022/05/30 00:08:56;;;;;;;16.33;8.00;;;;;;;;;;5028760;28;20049;-62
2022/05/30 00:11:23;;;;;;;18.95;8.52;;;;;;;;;;5028349;28;20030;-63
2022/05/30 00:13:49;;;;;;;32.25;9.60;;;;;;;;;;5030654;28;20053;-62
2022/05/30 00:16:17;;;;;;;29.98;9.35;;;;;;;;;;5031454;28;20052;-63
2022/05/30 00:18:44;;;;;;;32.95;8.75;;;;;;;;;;5028029;28;20042;-63
2022/05/30 00:21:11;;;;;;;16.38;7.45;;;;;;;;;;5028941;28;20041;-63
2022/05/30 00:23:40;;;;;;;21.73;8.32;;;;;;;;;;5028130;28;20053;-62
2022/05/30 00:26:07;;;;;;;21.95;7.32;;;;;;;;;;5027880;28;20486;-63
2022/05/30 00:28:34;;;;;;;26.98;8.00;;;;;;;;;;5032565;28;20051;-63
2022/05/30 00:31:01;;;;;;;24.98;8.50;;;;;;;;;;5027995;28;20077;-63
2022/05/30 00:33:28;;;;;;;16.77;7.55;;;;;;;;;;5027379;28;20462;-63
2022/05/30 00:35:54;;;;;;;16.52;7.50;;;;;;;;;;5027247;28;20502;-63
2022/05/30 00:38:21;;;;;;;18.25;7.25;;;;;;;;;;5028049;28;20077;-63
2022/05/30 00:40:47;;;;;;;31.00;8.73;;;;;;;;;;5028693;28;20409;-63
2022/05/30 00:43:17;;;;;;;13.95;6.40;;;;;;;;;;5028460;28;20108;-63
2022/05/30 00:45:43;;;;;;;18.52;7.38;;;;;;;;;;5025325;28;20064;-63
2022/05/30 00:48:10;;;;;;;18.35;7.28;;;;;;;;;;5027490;28;20072;-63
2022/05/30 00:50:37;;;;;;;22.33;7.40;;;;;;;;;;5027783;28;20417;-63
2022/05/30 00:53:04;;;;;;;18.65;7.38;;;;;;;;;;5027698;28;20512;-63
2022/05/30 00:55:31;;;;;;;19.13;6.90;;;;;;;;;;5026564;28;20065;-63
2022/05/30 00:57:57;;;;;;;19.50;7.63;;;;;;;;;;5030448;28;20139;-63
2022/05/30 01:00:25;;;;;;;36.45;8.85;;;;;;;;;;5027681;28;20120;-63
2022/05/30 01:08:27;;;;;;;18.48;7.55;;;;;;;;;;5026056;28;20128;-63
2022/05/30 01:10:54;;;;;;;20.70;7.20;;;;;;;;;;5028659;28;20153;-63
2022/05/30 01:13:23;;;;;;;18.98;6.97;;;;;;;;;;5030052;28;20063;-63
2022/05/30 01:15:51;;;;;;;29.67;7.50;;;;;;;;;;5027372;28;20038;-62
2022/05/30 01:18:20;;;;;;;13.52;6.45;;;;;;;;;;5024345;28;20497;-62
2022/05/30 01:20:56;;;;;;;22.92;6.90;;;;;;;;;;5024151;28;20092;-62
2022/05/30 01:23:41;;;;;;;41.03;8.68;;;;;;;;;;5029321;28;20080;-62
2022/05/30 01:26:31;;;;;;;19.10;7.00;;;;;;;;;;5026092;28;20062;-63
2022/05/30 01:28:58;;;;;;;23.00;7.07;;;;;;;;;;5026722;28;20136;-63
2022/05/30 01:31:25;;;;;;;21.00;7.05;;;;;;;;;;5031047;28;20409;-63
2022/05/30 01:33:52;;;;;;;13.32;6.45;;;;;;;;;;5025719;28;20048;-62
2022/05/30 01:36:23;;;;;;;25.08;7.20;;;;;;;;;;5026918;28;20501;-62
2022/05/30 01:38:51;;;;;;;18.05;6.93;;;;;;;;;;5025774;28;20116;-63
2022/05/30 01:41:27;;;;;;;19.85;6.63;;;;;;;;;;5030106;28;20061;-63
2022/05/30 01:43:54;;;;;;;20.27;7.15;;;;;;;;;;5011371;28;20056;-62
2022/05/30 01:46:22;;;;;;;24.88;7.50;;;;;;;;;;5030533;28;20045;-63
2022/05/30 01:48:52;;;;;;;27.27;7.18;;;;;;;;;;5025252;28;20136;-63
2022/05/30 01:51:20;;;;;;;15.38;6.55;;;;;;;;;;5027596;28;20061;-62
2022/05/30 01:53:50;;;;;;;15.65;6.80;;;;;;;;;;5029777;28;20050;-63
2022/05/30 01:56:37;;;;;;;17.52;7.00;;;;;;;;;;5013396;28;20048;-63
2022/05/30 01:59:05;;;;;;;18.20;6.72;;;;;;;;;;5030105;28;20081;-63
2022/05/30 02:01:38;;;;;;;21.00;6.82;;;;;;;;;;5035607;28;20053;-62
2022/05/30 02:04:05;;;;;;;13.05;6.05;;;;;;;;;;5032412;28;20048;-62
2022/05/30 02:06:34;;;;;;;21.35;7.03;;;;;;;;;;5029742;28;20462;-62
2022/05/30 02:09:02;;;;;;;12.98;6.60;;;;;;;;;;5032958;28;20129;-63
2022/05/30 02:11:29;;;;;;;16.83;7.03;;;;;;;;;;5029804;28;20091;-62
2022/05/30 02:14:18;;;;;;;14.23;6.38;;;;;;;;;;5029386;28;20062;-61
2022/05/30 02:19:32;;;;;;;19.92;6.63;;;;;;;;;;5035249;28;20448;-61
2022/05/30 02:22:02;;;;;;;27.63;7.75;;;;;;;;;;5029541;28;20107;-62
2022/05/30 02:24:29;;;;;;;15.68;7.28;;;;;;;;;;5030933;28;20056;-61
2022/05/30 02:26:55;;;;;;;19.42;7.47;;;;;;;;;;5030355;28;20040;-61
2022/05/30 02:29:22;;;;;;;21.83;8.43;;;;;;;;;;5029419;28;20053;-62
2022/05/30 02:31:55;;;;;;;25.90;7.70;;;;;;;;;;5030455;28;20042;-62
2022/05/30 02:37:08;;;;;;;14.75;7.07;;;;;;;;;;5032654;28;20046;-62
2022/05/30 02:39:36;;;;;;;24.17;7.82;;;;;;;;;;5028967;28;20091;-61
2022/05/30 02:42:21;;;;;;;19.02;8.23;;;;;;;;;;5030668;28;20519;-61
2022/05/30 02:44:49;;;;;;;16.00;7.13;;;;;;;;;;5027016;28;20037;-61
2022/05/30 02:47:17;;;;;;;21.38;7.82;;;;;;;;;;5029972;28;20042;-62
2022/05/30 02:49:51;;;;;;;26.92;7.95;;;;;;;;;;5030804;28;20088;-62
2022/05/30 02:52:18;;;;;;;15.55;6.68;;;;;;;;;;5030505;28;20053;-61
2022/05/30 02:54:44;;;;;;;14.38;7.55;;;;;;;;;;5028476;28;20046;-61
2022/05/30 02:57:15;;;;;;;19.33;6.97;;;;;;;;;;5028843;28;20068;-61
2022/05/30 02:59:42;;;;;;;16.52;6.75;;;;;;;;;;5031256;28;20037;-61
2022/05/30 03:02:08;;;;;;;12.00;5.38;;;;;;;;;;5029101;28;20482;-62
2022/05/30 03:04:35;;;;;;;12.43;5.55;;;;;;;;;;5032828;28;20056;-61
2022/05/30 03:07:06;;;;;;;20.77;5.78;;;;;;;;;;5029406;28;20041;-61
2022/05/30 03:09:33;;;;;;;10.15;4.82;;;;;;;;;;5027672;28;20132;-61
2022/05/30 03:11:59;;;;;;;22.73;6.10;;;;;;;;;;5029639;28;20046;-62
2022/05/30 03:14:26;;;;;;;12.27;5.13;;;;;;;;;;5028387;28;20053;-61
2022/05/30 03:16:53;;;;;;;24.38;6.85;;;;;;;;;;5030536;28;20128;-61
2022/05/30 03:19:19;;;;;;;23.13;6.85;;;;;;;;;;5031162;28;20046;-61
2022/05/30 03:21:47;;;;;;;17.25;6.18;;;;;;;;;;5027937;28;20088;-61
2022/05/30 03:24:14;;;;;;;27.77;7.80;;;;;;;;;;5027946;28;20072;-61
2022/05/30 03:26:41;;;;;;;16.58;6.70;;;;;;;;;;5029334;28;20030;-61
2022/05/30 03:29:07;;;;;;;12.00;6.63;;;;;;;;;;5028458;28;20063;-61
2022/05/30 03:31:41;;;;;;;29.17;8.05;;;;;;;;;;5030920;28;20049;-61
2022/05/30 03:34:07;;;;;;;25.20;7.82;;;;;;;;;;5032091;28;20057;-61
2022/05/30 03:36:34;;;;;;;17.67;6.65;;;;;;;;;;5028037;28;20147;-61
2022/05/30 03:39:28;;;;;;;17.95;6.80;;;;;;;;;;5023391;28;20045;-62
2022/05/30 03:42:13;;;;;;;16.67;6.95;;;;;;;;;;5029566;28;20041;-61
2022/05/30 03:44:52;;;;;;;19.95;7.60;;;;;;;;;;5031885;28;20045;-61
2022/05/30 03:47:19;;;;;;;24.52;7.95;;;;;;;;;;5027660;28;20029;-61
2022/05/30 03:49:46;;;;;;;37.30;9.27;;;;;;;;;;5031334;28;20043;-61
2022/05/30 03:52:14;;;;;;;22.48;8.23;;;;;;;;;;5030814;28;20466;-61
2022/05/30 03:54:41;;;;;;;24.65;8.10;;;;;;;;;;5027596;28;20049;-62
2022/05/30 03:57:08;;;;;;;18.05;7.55;;;;;;;;;;5027555;28;20037;-62
2022/05/30 03:59:34;;;;;;;21.77;8.70;;;;;;;;;;5024544;28;20414;-62
2022/05/30 04:02:01;;;;;;;23.98;9.60;;;;;;;;;;5028246;28;20157;-61
2022/05/30 04:04:28;;;;;;;22.15;9.27;;;;;;;;;;5031562;28;20037;-61
2022/05/30 04:06:54;;;;;;;23.63;10.07;;;;;;;;;;5015254;28;20088;-62
2022/05/30 04:09:22;;;;;;;27.73;11.98;;;;;;;;;;5027318;28;20129;-61
2022/05/30 04:12:09;;;;;;;19.55;10.23;;;;;;;;;;5060903;28;20056;-62
2022/05/30 04:15:21;;;;;;;19.65;8.93;;;;;;;;;;5061513;28;20118;-62
2022/05/30 04:17:48;;;;;;;30.65;11.95;;;;;;;;;;5043332;28;20590;-62
2022/05/30 04:20:15;;;;;;;25.30;9.65;;;;;;;;;;5055401;28;20120;-62
2022/05/30 04:22:43;;;;;;;31.52;11.13;;;;;;;;;;5052427;28;20098;-62
2022/05/30 04:25:36;;;;;;;27.48;9.70;;;;;;;;;;5050968;28;20059;-62
2022/05/30 04:28:02;;;;;;;32.17;9.63;;;;;;;;;;5029525;28;20095;-62
2022/05/30 04:30:33;;;;;;;20.60;9.80;;;;;;;;;;5028863;28;20049;-62
2022/05/30 04:33:01;;;;;;;23.77;11.18;;;;;;;;;;5028328;28;20145;-62
2022/05/30 04:35:30;;;;;;;28.55;11.60;;;;;;;;;;5004305;28;20635;-61
2022/05/30 04:37:56;;;;;;;32.60;11.07;;;;;;;;;;5046651;28;20041;-62
2022/05/30 04:40:55;;;;;;;33.30;10.43;;;;;;;;;;4967300;28;20058;-63
2022/05/30 04:43:50;;;;;;;65.53;19.75;;;;;;;;;;4967331;28;20630;-64
2022/05/30 04:46:35;;;;;;;80.07;25.05;;;;;;;;;;4963714;28;20053;-63
2022/05/30 04:49:02;;;;;;;47.92;18.42;;;;;;;;;;4935928;28;20048;-64
2022/05/30 04:51:29;;;;;;;59.08;21.00;;;;;;;;;;4931945;29;20047;-64
2022/05/30 04:53:56;;;;;;;49.10;18.60;;;;;;;;;;4916331;29;20055;-64
2022/05/30 04:56:54;;;;;;;74.65;24.48;;;;;;;;;;4930666;29;20054;-65
2022/05/30 04:59:24;;;;;;;86.65;28.50;;;;;;;;;;4930484;29;20099;-65
2022/05/30 05:01:55;;;;;;;63.85;23.35;;;;;;;;;;4921514;29;20048;-65
2022/05/30 05:04:23;;;;;;;47.47;20.83;;;;;;;;;;4935784;28;20054;-66
2022/05/30 05:06:50;;;;;;;38.40;16.95;;;;;;;;;;4935615;29;20046;-66
2022/05/30 05:09:17;;;;;;;64.03;25.88;;;;;;;;;;4951263;28;20047;-66
2022/05/30 05:12:10;;;;;;;67.25;25.02;;;;;;;;;;4949207;28;20531;-66
2022/05/30 05:14:56;;;;;;;57.70;22.42;;;;;;;;;;4950232;28;20097;-66
2022/05/30 05:17:41;;;;;;;62.40;24.65;;;;;;;;;;5001302;28;20053;-67
2022/05/30 05:20:08;;;;;;;61.35;24.23;;;;;;;;;;4989746;28;20054;-67
2022/05/30 05:22:35;;;;;;;76.93;29.10;;;;;;;;;;4993668;28;20073;-68
2022/05/30 05:25:02;;;;;;;50.88;19.80;;;;;;;;;;4988887;28;20498;-68
2022/05/30 05:27:34;;;;;;;58.00;21.85;;;;;;;;;;5005590;28;20169;-68
2022/05/30 05:30:01;;;;;;;80.22;26.98;;;;;;;;;;5007676;28;20081;-68
2022/05/30 05:32:27;;;;;;;69.65;25.02;;;;;;;;;;4987844;28;20038;-68
2022/05/30 05:34:54;;;;;;;62.17;22.85;;;;;;;;;;4990937;28;20046;-68
2022/05/30 05:37:20;;;;;;;64.03;25.45;;;;;;;;;;4992029;28;20073;-68
2022/05/30 05:39:50;;;;;;;78.03;27.10;;;;;;;;;;4988787;28;20081;-68
2022/05/30 05:42:17;;;;;;;96.72;30.05;;;;;;;;;;4967745;28;20046;-68
2022/05/30 05:44:45;;;;;;;61.72;24.77;;;;;;;;;;4997804;28;20046;-68
2022/05/30 05:47:12;;;;;;;50.38;20.23;;;;;;;;;;4988810;28;20042;-68
2022/05/30 05:49:38;;;;;;;58.55;22.90;;;;;;;;;;5005474;28;20465;-68
2022/05/30 05:52:05;;;;;;;105.40;29.92;;;;;;;;;;5030010;28;20100;-68
2022/05/30 05:54:32;;;;;;;71.68;25.63;;;;;;;;;;5027180;28;20038;-68
2022/05/30 05:57:00;;;;;;;67.00;25.17;;;;;;;;;;5029983;28;20045;-68
2022/05/30 05:59:32;;;;;;;77.57;27.75;;;;;;;;;;5025886;28;20132;-68
2022/05/30 06:01:58;;;;;;;63.88;25.05;;;;;;;;;;5013618;28;20072;-68
2022/05/30 06:04:25;;;;;;;60.60;22.70;;;;;;;;;;5030287;28;20140;-68
2022/05/30 06:07:32;;;;;;;16.65;1.67;;;;;;;;;;5029907;28;20072;-68
2022/05/30 06:10:07;;;;;;;11.70;1.20;;;;;;;;;;5030630;28;20072;-69
2022/05/30 06:12:55;;;;;;;6.43;0.65;;;;;;;;;;5025668;28;20095;-68
2022/05/30 06:15:21;;;;;;;8.35;0.85;;;;;;;;;;5025287;28;20128;-67
2022/05/30 06:18:00;;;;;;;7.18;0.73;;;;;;;;;;5025341;28;20686;-67
2022/05/30 06:20:26;;;;;;;9.02;0.93;;;;;;;;;;5025906;28;20128;-68
2022/05/30 06:22:53;;;;;;;16.58;1.77;;;;;;;;;;5028180;28;20049;-67
2022/05/30 06:25:54;;;;;;;17.83;1.67;;;;;;;;;;5027571;28;20042;-67
2022/05/30 06:28:44;;;;;;;7.35;0.77;;;;;;;;;;5028557;28;20045;-68
2022/05/30 06:31:12;;;;;;;5.18;0.55;;;;;;;;;;5012572;28;20048;-67
2022/05/30 06:33:39;;;;;;;7.72;0.85;;;;;;;;;;5028488;28;20080;-67
2022/05/30 06:36:10;;;;;;;7.35;0.93;;;;;;;;;;5011983;28;20045;-67
2022/05/30 06:38:37;;;;;;;4.97;0.52;;;;;;;;;;5028827;28;20094;-68
2022/05/30 06:41:12;;;;;;;22.15;2.13;;;;;;;;;;5028623;28;20073;-68
2022/05/30 06:43:39;;;;;;;14.80;1.77;;;;;;;;;;5014109;28;20055;-68
2022/05/30 06:46:26;;;;;;;6.63;0.85;;;;;;;;;;4993956;28;20055;-67
2022/05/30 06:49:25;;;;;;;10.57;1.02;;;;;;;;;;4935317;29;20095;-66
2022/05/30 06:51:56;;;;;;;10.80;1.13;;;;;;;;;;4933510;28;20043;-67
2022/05/30 06:54:23;;;;;;;15.00;3.60;;;;;;;;;;4933240;28;20048;-67
2022/05/30 06:59:35;;;;;;;6.53;0.68;;;;;;;;;;4934802;29;20066;-67
2022/05/30 07:02:05;;;;;;;8.15;0.85;;;;;;;;;;4934779;29;20040;-67
2022/05/30 07:04:50;;;;;;;18.02;1.83;;;;;;;;;;4930679;29;20099;-66
2022/05/30 07:07:46;;;;;;;6.75;0.82;;;;;;;;;;4915945;29;20060;-66
2022/05/30 07:10:32;;;;;;;6.80;0.77;;;;;;;;;;4915737;29;20075;-67
2022/05/30 07:13:09;;;;;;;14.65;1.42;;;;;;;;;;4899611;29;20048;-67
2022/05/30 07:15:37;;;;;;;4.97;0.65;;;;;;;;;;4915552;29;20036;-67
2022/05/30 07:18:09;;;;;;;9.13;1.00;;;;;;;;;;4914789;29;20052;-68
2022/05/30 07:20:36;;;;;;;3.85;0.45;;;;;;;;;;4915576;29;20505;-67
2022/05/30 07:23:22;;;;;;;12.85;1.52;;;;;;;;;;4945344;28;20097;-67
2022/05/30 07:26:08;;;;;;;24.65;2.80;;;;;;;;;;5026921;28;20137;-67
2022/05/30 07:29:05;;;;;;;11.10;1.50;;;;;;;;;;5030022;28;20056;-67
2022/05/30 07:31:50;;;;;;;14.23;1.63;;;;;;;;;;5030706;28;20571;-67
2022/05/30 07:34:46;;;;;;;14.52;1.60;;;;;;;;;;5012189;28;20050;-67
2022/05/30 07:37:31;;;;;;;14.50;1.38;;;;;;;;;;5032216;28;20052;-67
2022/05/30 07:40:30;;;;;;;22.95;2.85;;;;;;;;;;5012990;28;20136;-67
2022/05/30 07:43:23;;;;;;;52.25;19.80;;;;;;;;;;5030043;28;20053;-68
2022/05/30 07:46:03;;;;;;;50.22;18.25;;;;;;;;;;5030996;28;20053;-68
2022/05/30 07:48:56;;;;;;;104.40;30.50;;;;;;;;;;5030608;28;20092;-68
2022/05/30 07:51:43;;;;;;;91.75;28.55;;;;;;;;;;5031145;28;20686;-68
2022/05/30 07:54:18;;;;;;;71.82;24.15;;;;;;;;;;5010809;28;20599;-68
2022/05/30 07:56:56;;;;;;;86.13;25.55;;;;;;;;;;5010939;28;20046;-68
2022/05/30 07:59:24;;;;;;;92.72;26.85;;;;;;;;;;5013376;28;20599;-68
2022/05/30 08:01:50;;;;;;;102.22;27.35;;;;;;;;;;5012504;28;20060;-68
2022/05/30 08:04:18;;;;;;;87.78;26.15;;;;;;;;;;5011005;28;20046;-68
2022/05/30 08:06:44;;;;;;;61.38;20.95;;;;;;;;;;5027544;28;20506;-68
2022/05/30 08:09:29;;;;;;;74.07;21.02;;;;;;;;;;5030542;28;20061;-69
2022/05/30 08:12:06;;;;;;;46.88;17.10;;;;;;;;;;4959496;28;20447;-68
2022/05/30 08:14:55;;;;;;;48.88;18.02;;;;;;;;;;4973760;28;20154;-69
2022/05/30 08:17:26;;;;;;;55.92;19.15;;;;;;;;;;4971652;28;20097;-69
2022/05/30 08:19:53;;;;;;;49.95;16.58;;;;;;;;;;4956065;28;20109;-68
2022/05/30 08:22:23;;;;;;;1.75;0.30;;;;;;;;;;4956297;28;20436;-68
2022/05/30 08:24:53;;;;;;;11.70;1.75;;;;;;;;;;4976669;28;20435;-68
2022/05/30 08:27:22;;;;;;;6.28;0.75;;;;;;;;;;5027540;28;20041;-68
2022/05/30 08:29:53;;;;;;;1.92;0.93;;;;;;;;;;5027189;28;20103;-67
2022/05/30 08:32:21;;;;;;;26.45;2.72;;;;;;;;;;5026800;28;20049;-68
2022/05/30 08:34:59;;;;;;;19.27;1.98;;;;;;;;;;5030724;28;20119;-68
2022/05/30 08:37:30;;;;;;;16.02;1.92;;;;;;;;;;5029974;28;20076;-68
2022/05/30 08:42:44;;;;;;;14.98;1.67;;;;;;;;;;5030015;28;20125;-68
2022/05/30 08:45:36;;;;;;;18.10;2.28;;;;;;;;;;5026948;28;20045;-68
2022/05/30 08:48:32;;;;;;;5.25;0.75;;;;;;;;;;5027707;28;20046;-68
2022/05/30 08:51:02;;;;;;;10.93;2.90;;;;;;;;;;5026765;28;20128;-68
2022/05/30 08:53:53;;;;;;;5.68;0.88;;;;;;;;;;5026582;28;20049;-69
2022/05/30 08:56:23;;;;;;;9.20;1.45;;;;;;;;;;5026617;28;20049;-68
2022/05/30 08:59:20;;;;;;;9.60;1.10;;;;;;;;;;5029553;28;20065;-68
2022/05/30 09:01:52;;;;;;;4.50;0.60;;;;;;;;;;5027621;28;20053;-69
2022/05/30 09:04:31;;;;;;;13.95;1.45;;;;;;;;;;5031091;28;20072;-68
2022/05/30 09:07:02;;;;;;;1.63;0.32;;;;;;;;;;5026144;28;20060;-68
2022/05/30 09:09:31;;;;;;;;;;;;;;;;;;5026675;28;20037;-68
2022/05/30 09:12:14;;;;;;;5.60;0.95;;;;;;;;;;5026344;28;20364;-69
2022/05/30 09:15:17;;;;;;;13.02;1.92;;;;;;;;;;5026275;28;20137;-68
2022/05/30 09:17:50;;;;;;;1.55;0.30;;;;;;;;;;5026517;28;20048;-68
2022/05/30 09:20:18;;;;;;;12.40;1.38;;;;;;;;;;5028690;28;20034;-68
2022/05/30 09:22:45;;;;;;;2.30;0.35;;;;;;;;;;5030350;28;20053;-68
2022/05/30 09:28:43;;;;;;;11.55;2.58;;;;;;;;;;5025884;28;20269;-68
2022/05/30 09:31:47;;;;;;;6.10;0.80;;;;;;;;;;5012346;28;20072;-68
2022/05/30 09:34:29;;;;;;;7.55;1.00;;;;;;;;;;5022817;28;20088;-67
2022/05/30 09:37:31;;;;;;;39.60;14.60;;;;;;;;;;5010014;28;20050;-68
2022/05/30 09:40:18;;;;;;;25.48;11.55;;;;;;;;;;4993730;28;20045;-68
2022/05/30 09:43:27;;;;;;;34.97;13.73;;;;;;;;;;5005192;28;20065;-68
2022/05/30 09:45:55;;;;;;;24.30;12.30;;;;;;;;;;5009496;28;20142;-68
2022/05/30 09:48:58;;;;;;;41.33;14.57;;;;;;;;;;5009013;28;20116;-68
2022/05/30 09:51:30;;;;;;;33.45;13.73;;;;;;;;;;5009244;28;20494;-67
2022/05/30 09:54:00;;;;;;;37.83;15.27;;;;;;;;;;5001699;28;20049;-67
2022/05/30 09:56:27;;;;;;;46.40;15.48;;;;;;;;;;5014035;28;20140;-67
2022/05/30 09:59:04;;;;;;;37.38;12.45;;;;;;;;;;5024768;28;20049;-67
2022/05/30 10:01:48;;;;;;;29.08;11.45;;;;;;;;;;5027134;28;20057;-67
2022/05/30 10:04:29;;;;;;;19.77;10.57;;;;;;;;;;5026746;28;20417;-67
2022/05/30 10:07:07;;;;;;;44.17;16.38;;;;;;;;;;5026826;28;20390;-67
2022/05/30 10:10:19;;;;;;;38.45;14.70;;;;;;;;;;5027146;28;20041;-67
2022/05/30 10:12:56;;;;;;;22.52;11.02;;;;;;;;;;5028840;28;20048;-67
2022/05/30 10:15:57;;;;;;;20.58;9.55;;;;;;;;;;5060258;28;20051;-67
2022/05/30 10:18:24;;;;;;;23.00;10.80;;;;;;;;;;5046359;28;20045;-67
2022/05/30 10:21:03;;;;;;;19.83;9.13;;;;;;;;;;5047073;28;20540;-67
2022/05/30 10:30:53;;;;;;;24.02;10.48;;;;;;;;;;4988468;28;20419;-67
2022/05/30 10:34:09;;;;;;;19.27;9.82;;;;;;;;;;4972086;28;20050;-67
2022/05/30 10:36:45;;;;;;;23.10;9.98;;;;;;;;;;4930252;29;20126;-66
2022/05/30 10:39:24;;;;;;;16.45;7.63;;;;;;;;;;4931261;29;20126;-67
2022/05/30 10:41:58;;;;;;;19.15;9.05;;;;;;;;;;4930755;29;20054;-67
2022/05/30 10:44:27;;;;;;;20.80;9.45;;;;;;;;;;4931372;29;20048;-67
2022/05/30 10:47:18;;;;;;;25.45;12.93;;;;;;;;;;4918008;29;20043;-66
2022/05/30 10:50:01;;;;;;;21.60;12.48;;;;;;;;;;4915252;29;20520;-66
2022/05/30 10:52:37;;;;;;;21.20;9.57;;;;;;;;;;4911680;29;20052;-66
2022/05/30 10:55:09;;;;;;;20.60;8.90;;;;;;;;;;4878074;29;20582;-66
2022/05/30 10:57:39;;;;;;;11.75;5.28;;;;;;;;;;4878178;29;20140;-66
2022/05/30 11:00:17;;;;;;;13.52;4.32;;;;;;;;;;4878026;29;20045;-66
2022/05/30 11:03:03;;;;;;;10.77;5.20;;;;;;;;;;4896764;29;20509;-66
2022/05/30 11:05:30;;;;;;;10.45;5.13;;;;;;;;;;4935840;29;20103;-66
2022/05/30 11:08:03;;;;;;;19.63;5.82;;;;;;;;;;4953808;28;20440;-66
2022/05/30 11:10:32;;;;;;;9.93;4.93;;;;;;;;;;4954437;28;20125;-66
2022/05/30 11:13:10;;;;;;;9.93;4.38;;;;;;;;;;5017961;28;20112;-66
2022/05/30 11:15:52;;;;;;;15.57;5.75;;;;;;;;;;5028318;28;20041;-66
2022/05/30 11:18:54;;;;;;;28.38;8.88;;;;;;;;;;5028915;28;20049;-67
2022/05/30 11:21:40;;;;;;;13.52;5.65;;;;;;;;;;5032455;28;20042;-67
2022/05/30 11:24:08;;;;;;;14.15;6.40;;;;;;;;;;5028286;28;20493;-66
2022/05/30 11:26:52;;;;;;;11.70;6.13;;;;;;;;;;5029583;28;20056;-66
2022/05/30 11:29:31;;;;;;;11.02;5.57;;;;;;;;;;5033164;28;20445;-66
2022/05/30 11:32:03;;;;;;;23.92;7.03;;;;;;;;;;5030661;28;20523;-66
2022/05/30 11:34:47;;;;;;;12.38;6.70;;;;;;;;;;5032260;28;20046;-65
2022/05/30 11:37:38;;;;;;;10.25;6.68;;;;;;;;;;5033776;28;20073;-65
2022/05/30 11:40:10;;;;;;;24.23;7.93;;;;;;;;;;5031435;28;20152;-64
2022/05/30 11:43:01;;;;;;;17.00;5.80;;;;;;;;;;5029561;28;20106;-65
2022/05/30 11:45:46;;;;;;;11.63;6.13;;;;;;;;;;5029190;28;20041;-64
2022/05/30 11:48:23;;;;;;;11.50;4.35;;;;;;;;;;5028633;28;20536;-65
2022/05/30 11:50:50;;;;;;;13.63;5.57;;;;;;;;;;5029449;28;20057;-64
2022/05/30 11:53:19;;;;;;;25.55;6.05;;;;;;;;;;5029552;28;20135;-65
2022/05/30 11:55:52;;;;;;;25.25;6.40;;;;;;;;;;5029573;28;20480;-65
2022/05/30 11:58:27;;;;;;;11.75;4.93;;;;;;;;;;5030236;28;20044;-65
2022/05/30 12:00:54;;;;;;;20.15;7.85;;;;;;;;;;5029023;28;20045;-65
2022/05/30 12:03:27;;;;;;;13.27;7.13;;;;;;;;;;5028342;28;20047;-65
2022/05/30 12:06:12;;;;;;;17.80;6.78;;;;;;;;;;5029016;28;20041;-64
2022/05/30 12:08:38;;;;;;;14.48;6.82;;;;;;;;;;5028732;28;20033;-64
2022/05/30 12:11:05;;;;;;;28.90;6.75;;;;;;;;;;5031024;28;20045;-65
2022/05/30 12:13:55;;;;;;;8.73;4.63;;;;;;;;;;5031710;28;20045;-65
2022/05/30 12:16:27;;;;;;;16.48;5.28;;;;;;;;;;5031151;28;20053;-65
2022/05/30 12:24:40;;;;;;;10.85;4.50;;;;;;;;;;5028525;28;20038;-63
2022/05/30 12:27:07;;;;;;;12.88;6.15;;;;;;;;;;5027552;28;20501;-65
2022/05/30 12:29:37;;;;;;;14.60;6.60;;;;;;;;;;5028726;28;20038;-63
2022/05/30 12:32:09;;;;;;;26.55;8.60;;;;;;;;;;5030524;28;20466;-64
2022/05/30 12:34:54;;;;;;;13.75;6.55;;;;;;;;;;5031728;28;20068;-65
2022/05/30 12:37:41;;;;;;;16.55;6.22;;;;;;;;;;5032712;28;20073;-64
2022/05/30 12:40:21;;;;;;;27.80;6.40;;;;;;;;;;5027243;28;20038;-64
2022/05/30 12:42:56;;;;;;;13.35;6.75;;;;;;;;;;5028401;28;20065;-64
2022/05/30 12:45:35;;;;;;;31.00;8.38;;;;;;;;;;5030830;28;20045;-64
2022/05/30 12:48:11;;;;;;;23.80;5.93;;;;;;;;;;5027616;28;20047;-65
2022/05/30 12:50:56;;;;;;;32.47;7.10;;;;;;;;;;5027842;28;20120;-65
2022/05/30 12:53:24;;;;;;;23.30;6.22;;;;;;;;;;5027955;28;20052;-64
2022/05/30 12:55:51;;;;;;;18.17;5.28;;;;;;;;;;5032593;28;20375;-64
2022/05/30 12:58:33;;;;;;;21.25;8.40;;;;;;;;;;5029208;28;20046;-64
2022/05/30 13:01:08;;;;;;;15.25;8.10;;;;;;;;;;5027675;28;20132;-64
2022/05/30 13:03:39;;;;;;;15.73;6.97;;;;;;;;;;5027399;28;20100;-64
2022/05/30 13:06:10;;;;;;;14.35;6.20;;;;;;;;;;5027939;28;20053;-65
2022/05/30 13:08:46;;;;;;;16.55;8.45;;;;;;;;;;5027963;28;20052;-65
2022/05/30 13:11:22;;;;;;;33.45;11.48;;;;;;;;;;5029236;28;20052;-65
2022/05/30 13:13:51;;;;;;;36.67;10.65;;;;;;;;;;5032502;28;20049;-66
2022/05/30 13:16:29;;;;;;;19.48;10.07;;;;;;;;;;5028405;28;20053;-65
2022/05/30 13:18:55;;;;;;;26.90;11.45;;;;;;;;;;5027309;28;20048;-65
2022/05/30 13:21:24;;;;;;;32.25;13.73;;;;;;;;;;5027800;28;20100;-65
2022/05/30 13:23:51;;;;;;;33.05;13.75;;;;;;;;;;5027623;28;20136;-65
2022/05/30 13:26:18;;;;;;;28.75;13.63;;;;;;;;;;5028144;28;20080;-65
2022/05/30 13:28:48;;;;;;;41.67;15.70;;;;;;;;;;5027150;28;20038;-65
2022/05/30 13:31:14;;;;;;;42.17;17.48;;;;;;;;;;5027775;28;20060;-66
2022/05/30 13:33:46;;;;;;;43.45;18.70;;;;;;;;;;5027077;28;20556;-66
2022/05/30 13:36:18;;;;;;;51.97;21.02;;;;;;;;;;5027142;28;20088;-65
2022/05/30 13:38:48;;;;;;;72.18;26.13;;;;;;;;;;5027532;28;20037;-66
2022/05/30 13:41:15;;;;;;;62.97;23.30;;;;;;;;;;5028662;28;20042;-66
2022/05/30 13:43:42;;;;;;;62.40;21.70;;;;;;;;;;5031326;28;20128;-65
2022/05/30 13:46:33;;;;;;;53.83;20.80;;;;;;;;;;5029656;28;20051;-65
2022/05/30 13:49:00;;;;;;;64.80;22.30;;;;;;;;;;5027179;28;20482;-65
2022/05/30 13:51:43;;;;;;;16.13;1.63;;;;;;;;;;5027181;28;20556;-66
2022/05/30 13:54:11;;;;;;;10.13;1.25;;;;;;;;;;5034286;28;20132;-66
2022/05/30 13:56:43;;;;;;;6.55;0.68;;;;;;;;;;5031583;28;20052;-66
2022/05/30 13:59:28;;;;;;;17.05;1.60;;;;;;;;;;5032859;28;20041;-66
2022/05/30 14:01:56;;;;;;;13.90;1.38;;;;;;;;;;5032213;28;20128;-65
2022/05/30 14:04:25;;;;;;;5.68;0.57;;;;;;;;;;5035370;28;20123;-66
2022/05/30 14:06:52;;;;;;;3.78;0.70;;;;;;;;;;5031277;28;20049;-66
2022/05/30 14:09:19;;;;;;;9.52;1.65;;;;;;;;;;5030959;28;20387;-66
2022/05/30 14:11:47;;;;;;;8.65;1.30;;;;;;;;;;5031403;28;20048;-66
2022/05/30 14:14:40;;;;;;;19.83;2.22;;;;;;;;;;5031181;28;20434;-66
2022/05/30 14:17:07;;;;;;;34.13;3.55;;;;;;;;;;5033275;28;20045;-66
2022/05/30 14:19:38;;;;;;;6.10;2.67;;;;;;;;;;5033839;28;20040;-66
2022/05/30 14:22:14;;;;;;;6.03;1.40;;;;;;;;;;5034471;28;20054;-66
2022/05/30 14:24:51;;;;;;;7.90;1.00;;;;;;;;;;5030962;28;20037;-65
2022/05/30 14:27:19;;;;;;;16.63;2.05;;;;;;;;;;5031005;28;20065;-65
2022/05/30 14:29:46;;;;;;;4.18;1.60;;;;;;;;;;5031021;28;20216;-65
2022/05/30 14:32:19;;;;;;;10.55;1.25;;;;;;;;;;5031858;28;20046;-65
2022/05/30 14:35:03;;;;;;;8.83;1.47;;;;;;;;;;5035253;28;20529;-65
2022/05/30 14:37:32;;;;;;;13.57;2.92;;;;;;;;;;5032689;28;20104;-65
2022/05/30 14:40:00;;;;;;;5.93;0.80;;;;;;;;;;5030662;28;20466;-66
2022/05/30 14:42:31;;;;;;;27.73;4.03;;;;;;;;;;5028393;28;20046;-65
2022/05/30 14:45:06;;;;;;;17.83;1.98;;;;;;;;;;5030197;28;20038;-65
2022/05/30 14:47:34;;;;;;;22.90;2.55;;;;;;;;;;5030421;28;20069;-65
2022/05/30 14:50:02;;;;;;;22.67;2.30;;;;;;;;;;5032811;28;20044;-65
2022/05/30 14:52:34;;;;;;;7.70;0.95;;;;;;;;;;5035371;28;20049;-65
2022/05/30 14:55:04;;;;;;;16.05;1.95;;;;;;;;;;5030249;28;20493;-64
2022/05/30 14:57:30;;;;;;;9.35;1.45;;;;;;;;;;5029383;28;20037;-65
2022/05/30 14:59:57;;;;;;;11.68;1.20;;;;;;;;;;5030167;28;20029;-65
2022/05/30 15:05:10;;;;;;;20.92;2.42;;;;;;;;;;5029783;28;20113;-66
2022/05/30 15:07:38;;;;;;;9.85;1.20;;;;;;;;;;5033180;28;20405;-66
2022/05/30 15:10:06;;;;;;;23.02;2.42;;;;;;;;;;5031388;28;20049;-66
2022/05/30 15:12:33;;;;;;;12.70;1.48;;;;;;;;;;5029630;28;20112;-66
2022/05/30 15:14:59;;;;;;;9.18;1.83;;;;;;;;;;5030125;28;20520;-66
2022/05/30 15:17:26;;;;;;;21.63;2.10;;;;;;;;;;5029530;28;20049;-66
2022/05/30 15:19:53;;;;;;;8.40;0.98;;;;;;;;;;5034801;28;20042;-66
2022/05/30 15:22:21;;;;;;;9.43;1.08;;;;;;;;;;5030160;28;20077;-66
2022/05/30 15:24:53;;;;;;;5.65;0.73;;;;;;;;;;5028091;28;20034;-66
2022/05/30 15:27:21;;;;;;;8.70;0.95;;;;;;;;;;5029752;28;20052;-66
2022/05/30 15:29:48;;;;;;;9.50;1.10;;;;;;;;;;5029995;28;20436;-66
2022/05/30 15:32:19;;;;;;;9.25;1.40;;;;;;;;;;5030742;28;20041;-66
2022/05/30 15:34:46;;;;;;;11.20;1.35;;;;;;;;;;5033585;28;20041;-66
2022/05/30 15:37:15;;;;;;;2.63;0.30;;;;;;;;;;5024245;28;20111;-66
2022/05/30 15:39:43;;;;;;;1.75;1.17;;;;;;;;;;5027971;28;20040;-66
2022/05/30 15:42:10;;;;;;;11.82;1.65;;;;;;;;;;5028095;28;20045;-66
2022/05/30 15:44:41;;;;;;;6.72;0.73;;;;;;;;;;5029344;28;20041;-66